createdAt,value
2022-12-31T00:02:56.070Z,98230.31
2022-12-31T00:08:02.681Z,98242.44
2022-12-31T00:13:07.512Z,98242.16
2022-12-31T00:18:15.612Z,98237.06
2022-12-31T00:23:21.391Z,98238.50
2022-12-31T00:28:25.870Z,98228.34
2022-12-31T00:33:30.479Z,98222.78
2022-12-31T00:38:37.290Z,98230.66
2022-12-31T00:43:42.284Z,98219.16
2022-12-31T00:48:47.629Z,98223.81
2022-12-31T00:53:54.082Z,98228.19
2022-12-31T00:59:00.217Z,98229.00
2022-12-31T01:04:08.321Z,98234.72
2022-12-31T01:09:17.320Z,98249.78
2022-12-31T01:14:24.567Z,98241.72
2022-12-31T01:19:34.983Z,98237.31
2022-12-31T01:24:41.137Z,98219.56
2022-12-31T01:29:48.533Z,98223.06
2022-12-31T01:34:56.038Z,98212.78
2022-12-31T01:40:02.346Z,98195.44
2022-12-31T01:45:18.973Z,98205.97
2022-12-31T01:50:30.524Z,98198.84
2022-12-31T01:55:43.670Z,98214.34
2022-12-31T02:00:49.187Z,98213.09
2022-12-31T02:06:12.074Z,98211.91
2022-12-31T02:11:31.646Z,98194.81
2022-12-31T02:16:56.444Z,98172.69
2022-12-31T02:22:20.956Z,98167.88
2022-12-31T02:27:54.567Z,98180.22
2022-12-31T02:33:16.705Z,98171.19
2022-12-31T02:38:30.084Z,98164.72
2022-12-31T02:43:34.890Z,98162.34
2022-12-31T02:48:57.594Z,98191.84
2022-12-31T02:54:33.888Z,98193.47
2022-12-31T03:00:05.677Z,98188.78
2022-12-31T03:05:17.287Z,98195.00
2022-12-31T03:10:33.599Z,98194.56
2022-12-31T03:15:39.066Z,98201.16
2022-12-31T03:21:12.809Z,98187.72
2022-12-31T03:26:26.056Z,98194.41
2022-12-31T03:31:30.993Z,98212.75
2022-12-31T03:36:43.225Z,98215.88
2022-12-31T03:41:50.338Z,98216.81
2022-12-31T03:46:57.979Z,98215.81
2022-12-31T03:52:08.700Z,98221.38
2022-12-31T03:57:13.424Z,98214.22
2022-12-31T04:02:26.338Z,98223.13
2022-12-31T04:07:40.057Z,98243.94
2022-12-31T04:12:53.596Z,98230.66
2022-12-31T04:18:03.865Z,98236.00
2022-12-31T04:23:12.778Z,98249.66
2022-12-31T04:28:29.469Z,98260.53
2022-12-31T04:33:44.264Z,98267.34
2022-12-31T04:38:50.372Z,98265.78
2022-12-31T04:43:59.447Z,98276.03
2022-12-31T04:49:04.284Z,98278.59
2022-12-31T04:54:10.802Z,98266.16
2022-12-31T04:59:18.258Z,98248.94
2022-12-31T05:04:22.919Z,98239.84
2022-12-31T05:09:31.463Z,98249.19
2022-12-31T05:14:35.877Z,98249.50
2022-12-31T05:19:43.289Z,98237.47
2022-12-31T05:24:52.647Z,98239.78
2022-12-31T05:30:00.849Z,98242.38
2022-12-31T05:35:07.284Z,98257.59
2022-12-31T05:40:14.057Z,98256.75
2022-12-31T05:45:18.799Z,98253.66
2022-12-31T05:50:23.035Z,98250.91
2022-12-31T05:55:34.421Z,98276.38
2022-12-31T06:00:42.723Z,98273.56
2022-12-31T06:05:47.459Z,98287.56
2022-12-31T06:10:59.516Z,98279.66
2022-12-31T06:16:07.582Z,98288.63
2022-12-31T06:21:15.891Z,98283.50
2022-12-31T06:26:27.604Z,98278.31
2022-12-31T06:31:37.684Z,98280.28
2022-12-31T06:36:44.963Z,98286.81
2022-12-31T06:42:00.285Z,98292.66
2022-12-31T06:47:04.666Z,98284.72
2022-12-31T06:52:08.887Z,98287.31
2022-12-31T06:57:16.576Z,98298.66
2022-12-31T07:02:56.766Z,98314.38
2022-12-31T07:08:17.701Z,98325.59
2022-12-31T07:14:05.320Z,98318.31
2022-12-31T07:19:25.159Z,98309.25
2022-12-31T07:24:30.744Z,98313.66
2022-12-31T07:29:57.869Z,98332.63
2022-12-31T07:35:13.898Z,98305.84
2022-12-31T07:40:33.400Z,98306.44
2022-12-31T07:45:48.017Z,98307.22
2022-12-31T07:50:54.966Z,98313.97
2022-12-31T07:56:03.045Z,98321.91
2022-12-31T08:01:14.144Z,98318.53
2022-12-31T08:06:29.814Z,98329.28
2022-12-31T08:11:41.515Z,98343.63
2022-12-31T08:16:48.419Z,98331.34
2022-12-31T08:22:39.796Z,98340.03
2022-12-31T08:27:59.821Z,98353.25
2022-12-31T08:33:15.475Z,98361.63
2022-12-31T08:38:34.908Z,98357.00
2022-12-31T08:43:54.907Z,98350.81
2022-12-31T08:49:01.832Z,98337.66
2022-12-31T08:54:07.440Z,98353.75
2022-12-31T08:59:37.055Z,98336.56
2022-12-31T09:04:56.388Z,98346.72
2022-12-31T09:10:17.074Z,98342.19
2022-12-31T09:15:29.367Z,98327.56
2022-12-31T09:20:44.048Z,98336.53
2022-12-31T09:26:01.716Z,98348.41
2022-12-31T09:31:16.895Z,98338.19
2022-12-31T09:36:30.301Z,98338.69
2022-12-31T09:42:20.943Z,98323.56
2022-12-31T09:48:00.380Z,98341.00
2022-12-31T09:53:40.214Z,98335.13
2022-12-31T09:58:55.869Z,98336.75
2022-12-31T10:04:32.605Z,98309.03
2022-12-31T10:10:07.574Z,98328.06
2022-12-31T10:15:54.880Z,98337.31
2022-12-31T10:21:28.270Z,98335.63
2022-12-31T10:27:03.965Z,98332.03
2022-12-31T10:32:17.758Z,98326.63
2022-12-31T10:37:30.586Z,98321.84
2022-12-31T10:43:36.171Z,98316.06
2022-12-31T10:49:34.162Z,98317.81
2022-12-31T10:55:40.534Z,98314.03
2022-12-31T11:01:03.628Z,98321.19
2022-12-31T11:06:59.627Z,98326.72
2022-12-31T11:12:25.038Z,98316.81
2022-12-31T11:18:00.261Z,98306.06
2022-12-31T11:23:31.138Z,98305.19
2022-12-31T11:29:22.527Z,98314.78
2022-12-31T11:35:14.627Z,98305.25
2022-12-31T11:40:54.111Z,98313.56
2022-12-31T11:46:35.667Z,98294.88
2022-12-31T11:52:23.270Z,98297.28
2022-12-31T11:57:35.024Z,98285.03
2022-12-31T12:02:46.779Z,98284.50
2022-12-31T12:07:54.960Z,98277.00
2022-12-31T12:13:00.732Z,98281.59
2022-12-31T12:18:10.738Z,98272.59
2022-12-31T12:23:25.190Z,98280.88
2022-12-31T12:28:32.820Z,98266.22
2022-12-31T12:33:45.449Z,98274.59
2022-12-31T12:39:02.324Z,98264.44
2022-12-31T12:44:16.855Z,98250.41
2022-12-31T12:49:26.852Z,98243.81
2022-12-31T12:54:47.292Z,98256.59
2022-12-31T13:00:10.685Z,98248.16
2022-12-31T13:05:30.456Z,98256.53
2022-12-31T13:11:00.039Z,98251.75
2022-12-31T13:16:16.648Z,98261.22
2022-12-31T13:21:36.917Z,98252.00
2022-12-31T13:26:48.874Z,98260.75
2022-12-31T13:31:56.673Z,98275.19
2022-12-31T13:37:06.947Z,98286.66
2022-12-31T13:42:21.966Z,98289.34
2022-12-31T13:47:36.901Z,98282.63
2022-12-31T13:52:49.889Z,98286.44
2022-12-31T13:58:06.190Z,98306.03
2022-12-31T14:03:18.425Z,98314.03
2022-12-31T14:08:22.938Z,98303.59
2022-12-31T14:13:47.520Z,98300.63
2022-12-31T14:19:06.069Z,98299.66
2022-12-31T14:24:18.977Z,98304.22
2022-12-31T14:29:41.367Z,98302.34
2022-12-31T14:34:58.747Z,98308.91
2022-12-31T14:40:20.792Z,98305.66
2022-12-31T14:45:48.041Z,98310.41
2022-12-31T14:50:52.782Z,98318.13
2022-12-31T14:56:02.693Z,98317.81
2022-12-31T15:01:22.779Z,98331.72
2022-12-31T15:06:49.063Z,98326.34
2022-12-31T15:12:21.231Z,98329.47
2022-12-31T15:17:42.493Z,98328.81
2022-12-31T15:22:49.048Z,98327.03
2022-12-31T15:27:58.639Z,98333.25
2022-12-31T15:33:22.637Z,98333.88
2022-12-31T15:38:37.439Z,98348.56
2022-12-31T15:43:54.761Z,98361.78
2022-12-31T15:49:13.399Z,98361.94
2022-12-31T15:54:36.884Z,98364.22
2022-12-31T15:59:41.869Z,98364.50
2022-12-31T16:04:48.353Z,98364.81
2022-12-31T16:09:59.409Z,98363.53
2022-12-31T16:15:05.152Z,98364.34
2022-12-31T16:20:27.622Z,98362.81
2022-12-31T16:25:34.190Z,98370.13
2022-12-31T16:30:38.711Z,98364.38
2022-12-31T16:35:44.776Z,98370.06
2022-12-31T16:41:16.202Z,98383.44
2022-12-31T16:46:27.181Z,98379.00
2022-12-31T16:51:38.696Z,98379.81
2022-12-31T16:56:49.193Z,98380.91
2022-12-31T17:01:55.911Z,98383.66
2022-12-31T17:07:39.814Z,98395.91
2022-12-31T17:13:25.603Z,98391.34
2022-12-31T17:18:19.813Z,98390.16
2022-12-31T17:23:28.952Z,98392.53
2022-12-31T17:28:44.423Z,98391.72
2022-12-31T17:33:52.142Z,98393.66
2022-12-31T17:39:11.324Z,98406.53
2022-12-31T17:44:21.430Z,98407.50
2022-12-31T17:49:32.041Z,98414.72
2022-12-31T17:54:37.876Z,98414.56
2022-12-31T17:59:42.487Z,98429.28
2022-12-31T18:04:47.227Z,98413.75
2022-12-31T18:09:53.402Z,98425.78
2022-12-31T18:14:58.366Z,98426.91
2022-12-31T18:20:05.239Z,98436.53
2022-12-31T18:25:15.085Z,98426.91
2022-12-31T18:30:20.368Z,98432.13
2022-12-31T18:36:06.422Z,98432.50
2022-12-31T18:40:56.354Z,98423.66
2022-12-31T18:46:00.902Z,98430.22
2022-12-31T18:51:05.669Z,98435.47
2022-12-31T18:56:14.055Z,98427.44
2022-12-31T19:01:28.960Z,98429.41
2022-12-31T19:06:36.094Z,98426.63
2022-12-31T19:11:42.617Z,98438.72
2022-12-31T19:16:50.937Z,98438.00
2022-12-31T19:21:55.599Z,98444.75
2022-12-31T19:27:08.551Z,98440.34
2022-12-31T19:32:18.924Z,98439.88
2022-12-31T19:37:29.467Z,98458.81
2022-12-31T19:42:35.458Z,98449.22
2022-12-31T19:47:40.289Z,98446.50
2022-12-31T19:52:50.248Z,98454.34
2022-12-31T19:57:59.005Z,98449.91
2022-12-31T20:03:03.873Z,98450.59
2022-12-31T20:08:08.703Z,98440.50
2022-12-31T20:13:17.293Z,98418.78
2022-12-31T20:18:33.341Z,98426.50
2022-12-31T20:23:38.010Z,98436.81
2022-12-31T20:28:44.004Z,98429.69
2022-12-31T20:33:49.336Z,98432.50
2022-12-31T20:38:53.979Z,98432.50
2022-12-31T20:44:02.702Z,98429.91
2022-12-31T20:49:07.656Z,98432.03
2022-12-31T20:54:18.366Z,98434.50
2022-12-31T20:59:24.430Z,98423.91
2022-12-31T21:04:28.740Z,98432.19
2022-12-31T21:09:33.205Z,98427.31
2022-12-31T21:14:44.523Z,98426.16
2022-12-31T21:19:52.361Z,98446.53
2022-12-31T21:24:56.823Z,98446.53
2022-12-31T21:30:20.601Z,98435.91
2022-12-31T21:35:45.723Z,98436.09
2022-12-31T21:40:56.361Z,98449.97
2022-12-31T21:46:07.873Z,98447.19
2022-12-31T21:51:14.399Z,98453.75
2022-12-31T21:56:21.194Z,98460.75
2022-12-31T22:01:44.209Z,98468.56
2022-12-31T22:06:49.003Z,98477.22
2022-12-31T22:11:53.528Z,98480.16
2022-12-31T22:16:59.507Z,98463.53
2022-12-31T22:22:04.067Z,98463.84
2022-12-31T22:27:28.633Z,98458.75
2022-12-31T22:32:34.164Z,98470.75
2022-12-31T22:43:03.658Z,98457.25
2022-12-31T22:48:12.787Z,98446.94
2022-12-31T22:53:20.663Z,98453.63
2022-12-31T22:58:31.999Z,98454.09
2022-12-31T23:03:40.843Z,98456.00
2022-12-31T23:09:07.650Z,98452.41
2022-12-31T23:14:35.443Z,98454.03
2022-12-31T23:20:01.755Z,98472.50
2022-12-31T23:25:07.155Z,98469.06
2022-12-31T23:30:16.841Z,98472.88
2022-12-31T23:35:22.947Z,98464.03
2022-12-31T23:40:34.449Z,98482.50
2022-12-31T23:45:39.140Z,98471.09
2022-12-31T23:50:53.631Z,98464.59
2022-12-31T23:56:12.904Z,98458.72
